createdAt,value
2017-10-21T00:01:19.896Z,31.77
2017-10-21T00:03:46.013Z,37.50
2017-10-21T00:06:12.146Z,32.90
2017-10-21T00:08:38.258Z,31.27
2017-10-21T00:11:04.414Z,29.77
2017-10-21T00:13:30.521Z,31.10
2017-10-21T00:15:57.394Z,34.90
2017-10-21T00:18:23.502Z,25.60
2017-10-21T00:20:50.345Z,28.30
2017-10-21T00:23:16.453Z,25.20
2017-10-21T00:25:42.568Z,26.87
2017-10-21T00:28:08.700Z,25.90
2017-10-21T00:30:34.785Z,25.97
2017-10-21T00:33:00.917Z,25.73
2017-10-21T00:35:27.066Z,29.00
2017-10-21T00:37:53.207Z,25.27
2017-10-21T00:40:19.525Z,23.80
2017-10-21T00:42:45.647Z,28.97
2017-10-21T00:45:11.910Z,20.50
2017-10-21T00:47:38.021Z,24.87
2017-10-21T00:50:04.114Z,27.23
2017-10-21T00:52:30.957Z,30.33
2017-10-21T00:54:57.078Z,29.53
2017-10-21T00:57:23.161Z,29.27
2017-10-21T00:59:49.255Z,26.40
2017-10-21T01:02:15.379Z,26.47
2017-10-21T01:04:41.480Z,24.50
2017-10-21T01:07:08.332Z,25.67
2017-10-21T01:09:34.509Z,29.40
2017-10-21T01:12:00.610Z,27.10
2017-10-21T01:14:26.714Z,23.17
2017-10-21T01:16:52.836Z,21.80
2017-10-21T01:19:18.955Z,22.00
2017-10-21T01:21:45.082Z,22.07
2017-10-21T01:24:11.190Z,16.17
2017-10-21T01:26:38.330Z,23.03
2017-10-21T01:29:04.413Z,20.03
2017-10-21T01:31:30.557Z,19.07
2017-10-21T01:33:56.788Z,20.63
2017-10-21T01:36:22.898Z,20.77
2017-10-21T01:38:49.787Z,17.07
2017-10-21T01:41:15.880Z,18.93
2017-10-21T01:43:41.977Z,20.80
2017-10-21T01:46:08.198Z,13.90
2017-10-21T01:48:34.282Z,17.77
2017-10-21T01:51:00.394Z,23.30
2017-10-21T01:53:26.518Z,19.07
2017-10-21T01:55:52.606Z,19.07
2017-10-21T01:58:18.698Z,16.60
2017-10-21T02:00:44.828Z,20.03
2017-10-21T02:03:11.677Z,15.53
2017-10-21T02:05:37.765Z,16.67
2017-10-21T02:08:03.929Z,20.20
2017-10-21T02:10:30.793Z,19.73
2017-10-21T02:12:56.904Z,21.13
2017-10-21T02:15:23.026Z,17.63
2017-10-21T02:17:49.117Z,18.10
2017-10-21T02:20:15.200Z,22.13
2017-10-21T02:22:41.324Z,16.57
2017-10-21T02:25:07.411Z,24.10
2017-10-21T02:27:34.243Z,23.20
2017-10-21T02:30:00.428Z,28.83
2017-10-21T02:32:26.525Z,19.97
2017-10-21T02:34:52.650Z,24.93
2017-10-21T02:37:18.764Z,18.83
2017-10-21T02:39:44.893Z,19.40
2017-10-21T02:42:10.986Z,20.57
2017-10-21T02:44:37.831Z,17.03
2017-10-21T02:47:03.928Z,27.67
2017-10-21T02:49:30.026Z,22.90
2017-10-21T02:51:56.170Z,30.43
2017-10-21T02:54:23.070Z,16.30
2017-10-21T02:56:49.180Z,21.77
2017-10-21T02:59:15.338Z,20.43
2017-10-21T03:01:41.410Z,14.37
2017-10-21T03:04:07.494Z,15.90
2017-10-21T03:06:33.637Z,17.60
2017-10-21T03:08:59.720Z,15.70
2017-10-21T03:11:25.841Z,13.80
2017-10-21T03:13:57.008Z,20.63
2017-10-21T03:16:23.106Z,19.97
2017-10-21T03:18:49.199Z,13.57
2017-10-21T03:21:15.357Z,13.43
2017-10-21T03:23:41.557Z,12.60
2017-10-21T03:26:07.657Z,15.37
2017-10-21T03:28:33.802Z,14.73
2017-10-21T03:30:59.895Z,15.70
2017-10-21T03:33:26.785Z,17.03
2017-10-21T03:35:52.901Z,28.17
2017-10-21T03:38:19.778Z,17.33
2017-10-21T03:40:45.912Z,14.37
2017-10-21T03:43:12.024Z,15.37
2017-10-21T03:45:38.841Z,14.50
2017-10-21T03:48:04.991Z,14.43
2017-10-21T03:50:31.117Z,16.07
2017-10-21T03:52:57.219Z,12.10
2017-10-21T03:55:23.361Z,14.70
2017-10-21T03:57:49.477Z,11.07
2017-10-21T04:00:15.582Z,12.90
2017-10-21T04:02:41.789Z,13.93
2017-10-21T04:05:08.673Z,11.77
2017-10-21T04:07:34.766Z,10.07
2017-10-21T04:10:00.913Z,13.83
2017-10-21T04:12:27.084Z,10.50
2017-10-21T04:14:53.202Z,9.20
2017-10-21T04:17:20.097Z,8.70
2017-10-21T04:19:46.195Z,7.63
2017-10-21T04:22:13.131Z,8.37
2017-10-21T04:24:39.274Z,11.80
2017-10-21T04:27:05.519Z,11.63
2017-10-21T04:29:32.380Z,10.10
2017-10-21T04:31:59.274Z,10.07
2017-10-21T04:34:25.369Z,9.57
2017-10-21T04:36:52.241Z,12.13
2017-10-21T04:39:18.426Z,7.93
2017-10-21T04:41:44.507Z,10.97
2017-10-21T04:44:10.620Z,8.97
2017-10-21T04:46:36.754Z,9.40
2017-10-21T04:49:02.921Z,12.83
2017-10-21T04:51:29.745Z,8.33
2017-10-21T04:53:55.892Z,9.13
2017-10-21T04:56:21.988Z,9.90
2017-10-21T04:58:48.085Z,10.27
2017-10-21T05:01:14.986Z,14.27
2017-10-21T05:03:41.062Z,14.27
2017-10-21T05:06:07.172Z,15.30
2017-10-21T05:08:33.298Z,13.87
2017-10-21T05:10:59.395Z,13.03
2017-10-21T05:13:26.222Z,12.53
2017-10-21T05:15:52.340Z,11.77
2017-10-21T05:18:18.468Z,12.27
2017-10-21T05:20:44.553Z,9.90
2017-10-21T05:23:10.687Z,9.57
2017-10-21T05:25:36.819Z,12.70
2017-10-21T05:28:02.910Z,12.00
2017-10-21T05:30:29.036Z,16.50
2017-10-21T05:32:55.180Z,10.20
2017-10-21T05:35:21.270Z,15.93
2017-10-21T05:37:47.405Z,10.23
2017-10-21T05:40:13.497Z,14.50
2017-10-21T05:42:39.596Z,17.90
2017-10-21T05:45:06.445Z,17.77
2017-10-21T05:47:32.574Z,13.30
2017-10-21T05:49:58.711Z,11.53
2017-10-21T05:52:24.911Z,14.13
2017-10-21T05:54:57.922Z,12.50
2017-10-21T05:57:24.070Z,10.27
2017-10-21T05:59:50.198Z,7.40
2017-10-21T06:02:16.372Z,13.57
2017-10-21T06:04:42.485Z,9.50
2017-10-21T06:07:08.627Z,12.43
2017-10-21T06:09:34.729Z,9.73
2017-10-21T06:12:00.906Z,11.60
2017-10-21T06:14:27.044Z,7.63
2017-10-21T06:16:53.153Z,6.40
2017-10-21T06:19:19.253Z,15.73
2017-10-21T06:21:46.146Z,10.17
2017-10-21T06:24:12.232Z,14.50
2017-10-21T06:26:38.346Z,13.13
2017-10-21T06:29:04.457Z,13.83
2017-10-21T06:31:30.554Z,9.53
2017-10-21T06:33:56.677Z,19.13
2017-10-21T06:36:22.859Z,11.97
2017-10-21T06:38:48.973Z,11.37
2017-10-21T06:41:15.825Z,12.03
2017-10-21T06:43:42.732Z,25.53
2017-10-21T06:46:08.852Z,17.57
2017-10-21T06:48:34.951Z,10.93
2017-10-21T06:51:01.085Z,13.63
2017-10-21T06:53:27.236Z,12.70
2017-10-21T06:55:53.354Z,11.80
2017-10-21T06:58:19.547Z,12.37
2017-10-21T07:00:45.674Z,12.63
2017-10-21T07:03:11.769Z,20.40
2017-10-21T07:05:37.892Z,16.00
2017-10-21T07:08:04.013Z,15.53
2017-10-21T07:10:30.096Z,28.77
2017-10-21T07:12:56.225Z,13.90
2017-10-21T07:15:23.098Z,17.30
2017-10-21T07:17:49.186Z,12.33
2017-10-21T07:20:15.294Z,10.17
2017-10-21T07:22:41.380Z,11.63
2017-10-21T07:25:07.497Z,12.70
2017-10-21T07:27:33.617Z,11.97
2017-10-21T07:29:59.711Z,11.70
2017-10-21T07:32:25.816Z,10.43
2017-10-21T07:34:51.970Z,20.90
2017-10-21T07:37:18.081Z,15.00
2017-10-21T07:39:44.165Z,19.30
2017-10-21T07:42:12.122Z,13.70
2017-10-21T07:44:38.218Z,15.80
2017-10-21T07:47:04.308Z,11.13
2017-10-21T07:49:30.441Z,14.40
2017-10-21T07:51:56.545Z,21.53
2017-10-21T07:54:23.692Z,11.00
2017-10-21T07:56:49.831Z,9.97
2017-10-21T07:59:15.920Z,15.27
2017-10-21T08:01:42.007Z,21.57
2017-10-21T08:04:08.128Z,14.37
2017-10-21T08:06:34.234Z,7.50
2017-10-21T08:09:00.398Z,8.80
2017-10-21T08:11:27.297Z,18.23
2017-10-21T08:13:53.427Z,11.03
2017-10-21T08:16:19.596Z,15.17
2017-10-21T08:18:45.839Z,13.60
2017-10-21T08:21:11.958Z,12.10
2017-10-21T08:23:38.069Z,11.77
2017-10-21T08:26:04.362Z,11.23
2017-10-21T08:28:30.451Z,10.20
2017-10-21T08:30:56.605Z,10.87
2017-10-21T08:33:22.737Z,12.30
2017-10-21T08:35:48.898Z,7.23
2017-10-21T08:38:15.801Z,7.60
2017-10-21T08:40:41.914Z,16.67
2017-10-21T08:43:08.019Z,10.07
2017-10-21T08:45:34.107Z,12.60
2017-10-21T08:48:01.018Z,11.03
2017-10-21T08:50:27.173Z,14.60
2017-10-21T08:52:53.307Z,13.43
2017-10-21T08:55:19.853Z,14.53
2017-10-21T08:57:45.952Z,9.17
2017-10-21T09:00:12.654Z,12.00
2017-10-21T09:02:38.766Z,9.77
2017-10-21T09:05:04.844Z,15.97
2017-10-21T09:07:30.953Z,10.87
2017-10-21T09:09:57.081Z,10.40
2017-10-21T09:12:23.197Z,14.90
2017-10-21T09:14:49.285Z,11.73
2017-10-21T09:17:15.429Z,9.47
2017-10-21T09:19:41.515Z,10.33
2017-10-21T09:22:07.608Z,13.37
2017-10-21T09:24:33.725Z,11.50
2017-10-21T09:26:59.806Z,17.37
2017-10-21T09:29:25.968Z,11.07
2017-10-21T09:31:52.109Z,18.13
2017-10-21T09:34:18.420Z,11.60
2017-10-21T09:36:45.272Z,9.37
2017-10-21T09:39:12.129Z,15.10
2017-10-21T09:41:38.970Z,11.80
2017-10-21T09:44:05.069Z,13.43
2017-10-21T09:46:31.200Z,14.27
2017-10-21T09:48:57.281Z,13.30
2017-10-21T09:51:23.432Z,14.13
2017-10-21T09:53:50.351Z,11.70
2017-10-21T09:56:16.444Z,14.30
2017-10-21T09:58:42.538Z,12.17
2017-10-21T10:01:08.656Z,14.07
2017-10-21T10:03:34.755Z,14.60
2017-10-21T10:06:00.910Z,12.83
2017-10-21T10:08:29.102Z,14.20
2017-10-21T10:10:55.238Z,13.33
2017-10-21T10:13:21.358Z,13.63
2017-10-21T10:15:47.501Z,27.90
2017-10-21T10:18:13.581Z,8.93
2017-10-21T10:20:39.705Z,19.60
2017-10-21T10:23:08.029Z,14.03
2017-10-21T10:25:34.415Z,10.20
2017-10-21T10:28:00.645Z,13.87
2017-10-21T10:30:26.760Z,10.50
2017-10-21T10:32:53.614Z,15.43
2017-10-21T10:35:21.023Z,15.43
2017-10-21T10:37:47.194Z,14.63
2017-10-21T10:40:13.514Z,9.27
2017-10-21T10:42:40.156Z,12.40
2017-10-21T10:45:06.372Z,22.37
2017-10-21T10:47:32.480Z,14.27
2017-10-21T10:49:58.593Z,12.33
2017-10-21T10:52:24.718Z,17.47
2017-10-21T10:54:51.961Z,9.33
2017-10-21T10:57:18.034Z,13.97
2017-10-21T10:59:44.206Z,18.33
2017-10-21T11:02:11.050Z,22.80
2017-10-21T11:04:37.213Z,14.17
2017-10-21T11:07:04.081Z,16.60
2017-10-21T11:09:30.185Z,26.03
2017-10-21T11:11:56.293Z,18.70
2017-10-21T11:14:22.473Z,10.80
2017-10-21T11:16:49.335Z,9.90
2017-10-21T11:19:16.165Z,15.07
2017-10-21T11:21:42.386Z,16.10
2017-10-21T11:24:08.473Z,12.40
2017-10-21T11:26:34.617Z,15.27
2017-10-21T11:29:00.738Z,13.77
2017-10-21T11:31:27.575Z,12.57
2017-10-21T11:33:53.662Z,29.30
2017-10-21T11:36:19.804Z,16.80
2017-10-21T11:38:45.965Z,13.70
2017-10-21T11:41:12.076Z,11.90
2017-10-21T11:43:38.202Z,10.73
2017-10-21T11:46:04.323Z,15.53
2017-10-21T11:48:31.182Z,15.87
2017-10-21T11:50:58.066Z,15.37
2017-10-21T11:53:24.136Z,14.90
2017-10-21T11:55:50.218Z,14.47
2017-10-21T11:58:17.083Z,13.03
2017-10-21T12:00:43.185Z,13.43
2017-10-21T12:03:09.320Z,14.03
2017-10-21T12:05:35.956Z,18.43
2017-10-21T12:08:02.446Z,13.97
2017-10-21T12:10:28.564Z,22.83
2017-10-21T12:12:55.425Z,16.30
2017-10-21T12:15:21.522Z,15.17
2017-10-21T12:17:47.620Z,18.57
2017-10-21T12:20:14.509Z,13.47
2017-10-21T12:22:40.645Z,17.20
2017-10-21T12:25:06.776Z,14.30
2017-10-21T12:27:32.908Z,14.10
2017-10-21T12:29:58.989Z,14.03
2017-10-21T12:32:25.082Z,15.17
2017-10-21T12:34:51.200Z,16.37
2017-10-21T12:37:18.030Z,19.27
2017-10-21T12:39:44.148Z,21.57
2017-10-21T12:42:10.310Z,14.03
2017-10-21T12:44:37.209Z,17.07
2017-10-21T12:47:03.342Z,20.83
2017-10-21T12:49:29.445Z,17.97
2017-10-21T12:51:56.293Z,18.30
2017-10-21T12:54:22.663Z,17.10
2017-10-21T12:56:48.882Z,14.97
2017-10-21T12:59:14.969Z,15.63
2017-10-21T13:01:41.105Z,17.73
2017-10-21T13:04:07.250Z,15.00
2017-10-21T13:06:33.345Z,14.57
2017-10-21T13:09:00.168Z,21.17
2017-10-21T13:11:26.298Z,13.87
2017-10-21T13:13:52.395Z,11.80
2017-10-21T13:16:18.493Z,16.77
2017-10-21T13:18:44.609Z,15.37
2017-10-21T13:21:10.719Z,17.13
2017-10-21T13:23:36.840Z,14.93
2017-10-21T13:26:02.965Z,15.50
2017-10-21T13:28:29.857Z,16.80
2017-10-21T13:30:56.810Z,20.07
2017-10-21T13:33:22.977Z,14.40
2017-10-21T13:35:49.067Z,15.90
2017-10-21T13:38:15.910Z,17.50
2017-10-21T13:40:42.873Z,13.37
2017-10-21T13:43:09.722Z,14.17
2017-10-21T13:45:35.833Z,11.67
2017-10-21T13:48:02.007Z,12.17
2017-10-21T13:50:28.845Z,15.00
2017-10-21T13:52:54.929Z,15.97
2017-10-21T13:55:21.054Z,14.80
2017-10-21T13:57:47.201Z,11.50
2017-10-21T14:00:13.305Z,13.47
2017-10-21T14:02:40.162Z,17.70
2017-10-21T14:05:07.033Z,16.40
2017-10-21T14:07:34.280Z,16.33
2017-10-21T14:10:01.134Z,13.17
2017-10-21T14:12:28.141Z,20.00
2017-10-21T14:14:54.743Z,21.33
2017-10-21T14:17:21.638Z,18.63
2017-10-21T14:19:47.810Z,19.07
2017-10-21T14:22:13.942Z,17.87
2017-10-21T14:24:40.073Z,11.90
2017-10-21T14:27:06.177Z,13.77
2017-10-21T14:29:34.402Z,17.73
2017-10-21T14:32:01.006Z,17.23
2017-10-21T14:34:27.161Z,15.23
2017-10-21T14:36:53.268Z,16.47
2017-10-21T14:39:20.114Z,18.17
2017-10-21T14:41:46.252Z,21.97
2017-10-21T14:44:12.357Z,16.67
2017-10-21T14:46:38.510Z,16.27
2017-10-21T14:49:04.614Z,17.67
2017-10-21T14:51:32.947Z,14.87
2017-10-21T14:53:59.243Z,19.87
2017-10-21T14:56:25.519Z,14.43
2017-10-21T14:58:51.713Z,19.23
2017-10-21T15:01:17.818Z,30.10
2017-10-21T15:03:43.919Z,20.23
2017-10-21T15:06:10.057Z,20.07
2017-10-21T15:08:36.182Z,22.87
2017-10-21T15:11:02.321Z,18.43
2017-10-21T15:13:28.425Z,15.13
2017-10-21T15:15:55.543Z,17.50
2017-10-21T15:18:21.675Z,18.97
2017-10-21T15:20:47.780Z,14.17
2017-10-21T15:23:13.921Z,23.40
2017-10-21T15:25:40.159Z,20.90
2017-10-21T15:28:06.448Z,14.07
2017-10-21T15:30:32.610Z,18.93
2017-10-21T15:33:00.220Z,21.87
2017-10-21T15:35:26.305Z,21.87
2017-10-21T15:37:52.428Z,20.93
2017-10-21T15:40:18.514Z,21.57
2017-10-21T15:42:45.395Z,20.20
2017-10-21T15:45:12.983Z,21.57
2017-10-21T15:47:39.113Z,23.07
2017-10-21T15:50:05.193Z,22.97
2017-10-21T15:52:32.045Z,24.67
2017-10-21T15:54:58.620Z,28.27
2017-10-21T15:57:27.281Z,24.00
2017-10-21T15:59:54.172Z,22.20
2017-10-21T16:02:21.089Z,19.17
2017-10-21T16:04:47.168Z,22.73
2017-10-21T16:07:13.302Z,20.57
2017-10-21T16:09:39.674Z,30.80
2017-10-21T16:12:05.805Z,24.33
2017-10-21T16:14:31.927Z,22.40
2017-10-21T16:16:58.065Z,21.43
2017-10-21T16:19:24.356Z,30.77
2017-10-21T16:21:51.337Z,26.07
2017-10-21T16:24:18.159Z,21.60
2017-10-21T16:26:44.417Z,24.73
2017-10-21T16:29:10.660Z,26.83
2017-10-21T16:31:36.737Z,22.87
2017-10-21T16:34:02.843Z,22.93
2017-10-21T16:36:29.419Z,22.30
2017-10-21T16:38:55.597Z,28.00
2017-10-21T16:41:21.688Z,22.77
2017-10-21T16:43:47.858Z,22.33
2017-10-21T16:46:13.949Z,24.10
2017-10-21T16:48:40.049Z,24.87
2017-10-21T16:51:06.161Z,33.70
2017-10-21T16:53:32.276Z,25.23
2017-10-21T16:55:59.098Z,24.40
2017-10-21T16:58:25.213Z,31.60
2017-10-21T17:00:51.332Z,24.37
2017-10-21T17:03:17.448Z,23.67
2017-10-21T17:05:43.577Z,33.00
2017-10-21T17:08:10.412Z,27.13
2017-10-21T17:10:36.484Z,30.63
2017-10-21T17:13:02.605Z,24.97
2017-10-21T17:15:29.433Z,31.77
2017-10-21T17:17:55.536Z,31.57
2017-10-21T17:20:21.666Z,28.80
2017-10-21T17:22:47.749Z,26.80
2017-10-21T17:25:13.883Z,27.30
2017-10-21T17:27:40.007Z,27.37
2017-10-21T17:30:06.093Z,24.37
2017-10-21T17:32:32.936Z,34.40
2017-10-21T17:34:59.063Z,26.03
2017-10-21T17:37:27.336Z,22.00
2017-10-21T17:39:54.527Z,25.67
2017-10-21T17:42:21.397Z,30.47
2017-10-21T17:44:47.533Z,31.60
2017-10-21T17:47:14.401Z,25.63
2017-10-21T17:49:40.575Z,17.43
2017-10-21T17:52:06.687Z,30.40
2017-10-21T17:54:32.772Z,26.03
2017-10-21T17:56:58.897Z,20.90
2017-10-21T17:59:25.177Z,24.77
2017-10-21T18:01:52.029Z,27.13
2017-10-21T18:04:18.899Z,19.90
2017-10-21T18:06:45.012Z,26.33
2017-10-21T18:09:11.210Z,23.57
2017-10-21T18:11:37.360Z,27.67
2017-10-21T18:14:03.512Z,22.00
2017-10-21T18:16:29.608Z,20.57
2017-10-21T18:18:56.621Z,26.10
2017-10-21T18:21:22.828Z,33.10
2017-10-21T18:23:48.916Z,32.47
2017-10-21T18:26:15.758Z,28.70
2017-10-21T18:28:41.866Z,29.00
2017-10-21T18:31:08.009Z,43.00
2017-10-21T18:33:34.170Z,36.63
2017-10-21T18:36:00.277Z,33.63
2017-10-21T18:38:26.400Z,29.87
2017-10-21T18:40:52.541Z,30.50
2017-10-21T18:43:18.633Z,28.53
2017-10-21T18:45:45.526Z,30.50
2017-10-21T18:48:11.658Z,32.20
2017-10-21T18:50:37.779Z,26.90
2017-10-21T18:53:03.881Z,28.70
2017-10-21T18:55:30.177Z,33.67
2017-10-21T18:57:56.432Z,31.77
2017-10-21T19:00:23.650Z,24.67
2017-10-21T19:02:50.626Z,31.43
2017-10-21T19:05:17.453Z,28.03
2017-10-21T19:07:43.534Z,27.83
2017-10-21T19:10:09.652Z,26.27
2017-10-21T19:12:35.751Z,26.80
2017-10-21T19:15:01.838Z,29.70
2017-10-21T19:17:28.005Z,28.23
2017-10-21T19:19:54.241Z,29.30
2017-10-21T19:22:20.313Z,27.30
2017-10-21T19:24:46.438Z,33.43
2017-10-21T19:27:12.521Z,26.33
2017-10-21T19:29:39.370Z,29.27
2017-10-21T19:32:05.505Z,24.93
2017-10-21T19:34:31.598Z,26.90
2017-10-21T19:36:57.741Z,23.70
2017-10-21T19:39:23.925Z,30.40
2017-10-21T19:41:50.880Z,27.17
2017-10-21T19:44:17.734Z,30.13
2017-10-21T19:46:44.652Z,29.93
2017-10-21T19:49:10.722Z,30.77
2017-10-21T19:51:37.586Z,36.50
2017-10-21T19:54:03.741Z,34.07
2017-10-21T19:56:29.877Z,34.07
2017-10-21T19:58:56.656Z,25.60
2017-10-21T20:01:22.824Z,31.83
2017-10-21T20:03:48.983Z,33.60
2017-10-21T20:06:15.113Z,33.60
2017-10-21T20:08:41.248Z,28.77
2017-10-21T20:11:07.342Z,29.30
2017-10-21T20:13:34.445Z,36.03
2017-10-21T20:16:00.657Z,33.47
2017-10-21T20:18:26.745Z,46.27
2017-10-21T20:20:52.871Z,30.83
2017-10-21T20:23:19.808Z,29.43
2017-10-21T20:25:45.922Z,30.47
2017-10-21T20:28:12.035Z,34.57
2017-10-21T20:30:38.157Z,32.43
2017-10-21T20:33:04.989Z,34.67
2017-10-21T20:35:31.180Z,24.07
2017-10-21T20:37:57.317Z,29.57
2017-10-21T20:40:24.511Z,27.20
2017-10-21T20:42:50.608Z,33.47
2017-10-21T20:45:16.716Z,26.97
2017-10-21T20:47:43.761Z,30.60
2017-10-21T20:50:10.643Z,30.47
2017-10-21T20:52:36.796Z,31.13
2017-10-21T20:55:02.918Z,24.17
2017-10-21T20:57:29.350Z,27.33
2017-10-21T20:59:56.074Z,27.13
2017-10-21T21:02:22.172Z,24.17
2017-10-21T21:04:48.277Z,28.43
2017-10-21T21:07:14.405Z,28.30
2017-10-21T21:09:40.531Z,33.37
2017-10-21T21:12:07.373Z,25.67
2017-10-21T21:14:33.477Z,21.83
2017-10-21T21:16:59.583Z,27.03
2017-10-21T21:19:26.440Z,27.30
2017-10-21T21:21:53.326Z,28.93
2017-10-21T21:24:19.493Z,27.40
2017-10-21T21:26:45.646Z,26.60
2017-10-21T21:29:11.769Z,27.60
2017-10-21T21:31:37.859Z,30.60
2017-10-21T21:34:04.021Z,36.83
2017-10-21T21:36:30.133Z,26.10
2017-10-21T21:38:57.012Z,31.90
2017-10-21T21:41:23.157Z,26.60
2017-10-21T21:43:49.269Z,28.93
2017-10-21T21:46:16.105Z,25.13
2017-10-21T21:48:42.249Z,26.07
2017-10-21T21:51:09.179Z,26.43
2017-10-21T21:53:35.309Z,31.90
2017-10-21T21:56:01.435Z,29.63
2017-10-21T21:58:27.640Z,37.93
2017-10-21T22:00:53.754Z,26.50
2017-10-21T22:03:19.837Z,32.63
2017-10-21T22:05:45.958Z,28.97
2017-10-21T22:08:12.045Z,39.40
2017-10-21T22:10:38.141Z,28.03
2017-10-21T22:13:04.310Z,34.73
2017-10-21T22:15:30.393Z,33.30
2017-10-21T22:17:57.233Z,35.17
2017-10-21T22:20:24.133Z,26.97
2017-10-21T22:22:50.268Z,25.50
2017-10-21T22:25:16.402Z,34.27
2017-10-21T22:27:42.549Z,31.47
2017-10-21T22:30:08.651Z,28.07
2017-10-21T22:32:35.551Z,25.97
2017-10-21T22:35:01.726Z,36.90
2017-10-21T22:37:27.849Z,31.00
2017-10-21T22:39:54.096Z,32.93
2017-10-21T22:42:20.293Z,26.60
2017-10-21T22:44:46.437Z,32.90
2017-10-21T22:47:12.505Z,31.23
2017-10-21T22:49:38.763Z,30.77
2017-10-21T22:52:04.930Z,28.80
2017-10-21T22:54:31.801Z,26.23
2017-10-21T22:56:57.908Z,32.93
2017-10-21T22:59:24.025Z,28.23
2017-10-21T23:01:50.129Z,28.13
2017-10-21T23:04:16.274Z,27.30
2017-10-21T23:06:42.437Z,28.83
2017-10-21T23:09:08.533Z,29.10
2017-10-21T23:11:34.675Z,29.17
2017-10-21T23:14:00.808Z,31.53
2017-10-21T23:16:26.976Z,33.00
2017-10-21T23:18:53.116Z,35.10
2017-10-21T23:21:19.319Z,33.53
2017-10-21T23:23:45.451Z,31.13
2017-10-21T23:26:11.586Z,31.13
2017-10-21T23:28:37.665Z,34.27
2017-10-21T23:31:03.763Z,33.20
2017-10-21T23:33:29.948Z,30.63
2017-10-21T23:35:56.039Z,28.13
2017-10-21T23:38:22.152Z,27.73
2017-10-21T23:40:48.318Z,37.00
2017-10-21T23:43:14.420Z,32.43
2017-10-21T23:45:40.502Z,39.40
2017-10-21T23:48:06.617Z,28.17
2017-10-21T23:50:32.757Z,35.57
2017-10-21T23:52:59.586Z,37.70
2017-10-21T23:55:25.697Z,42.97
2017-10-21T23:57:51.786Z,36.00
